createdAt,value
2016-06-25T00:00:39.190Z,22.06
2016-06-25T00:01:39.173Z,22.07
2016-06-25T00:02:38.545Z,21.99
2016-06-25T00:03:38.577Z,21.92
2016-06-25T00:04:39.130Z,21.96
2016-06-25T00:05:39.728Z,21.93
2016-06-25T00:06:39.093Z,21.92
2016-06-25T00:07:39.069Z,21.91
2016-06-25T00:08:39.653Z,21.85
2016-06-25T00:09:39.042Z,21.88
2016-06-25T00:10:39.024Z,21.83
2016-06-25T00:11:39.013Z,21.75
2016-06-25T00:12:39.003Z,21.76
2016-06-25T00:13:38.986Z,21.76
2016-06-25T00:14:38.967Z,21.76
2016-06-25T00:15:39.550Z,21.76
2016-06-25T00:16:39.536Z,21.73
2016-06-25T00:17:39.529Z,21.7
2016-06-25T00:18:38.919Z,21.76
2016-06-25T00:19:39.485Z,21.69
2016-06-25T00:20:39.473Z,21.72
2016-06-25T00:21:38.870Z,21.76
2016-06-25T00:22:38.841Z,21.72
2016-06-25T00:23:39.426Z,21.76
2016-06-25T00:24:39.406Z,21.75
2016-06-25T00:25:38.799Z,21.75
2016-06-25T00:26:38.183Z,21.72
2016-06-25T00:27:39.352Z,21.75
2016-06-25T00:28:38.749Z,21.76
2016-06-25T00:29:38.139Z,21.76
2016-06-25T00:30:38.713Z,21.79
2016-06-25T00:31:39.292Z,21.82
2016-06-25T00:32:39.275Z,21.85
2016-06-25T00:33:39.307Z,21.82
2016-06-25T00:34:39.247Z,21.8
2016-06-25T00:35:38.633Z,21.82
2016-06-25T00:36:38.047Z,21.82
2016-06-25T00:37:38.039Z,21.88
2016-06-25T00:38:38.602Z,21.82
2016-06-25T00:39:37.981Z,21.83
2016-06-25T00:40:39.182Z,21.76
2016-06-25T00:41:38.538Z,21.82
2016-06-25T00:42:38.529Z,21.85
2016-06-25T00:43:37.918Z,21.76
2016-06-25T00:44:38.506Z,21.82
2016-06-25T00:45:38.493Z,21.72
2016-06-25T00:46:38.471Z,21.73
2016-06-25T00:47:37.847Z,21.7
2016-06-25T00:48:38.429Z,21.73
2016-06-25T00:49:37.828Z,21.77
2016-06-25T00:50:38.403Z,21.7
2016-06-25T00:51:38.378Z,21.69
2016-06-25T00:52:38.975Z,21.66
2016-06-25T00:53:39.181Z,21.66
2016-06-25T00:54:38.337Z,21.69
2016-06-25T00:55:38.320Z,21.69
2016-06-25T00:56:38.301Z,21.7
2016-06-25T00:57:38.354Z,21.7
2016-06-25T00:58:38.269Z,21.67
2016-06-25T00:59:38.271Z,21.67
2016-06-25T01:00:38.853Z,21.69
2016-06-25T01:01:38.253Z,21.69
2016-06-25T01:02:37.622Z,21.66
2016-06-25T01:03:38.795Z,21.61
2016-06-25T01:04:38.791Z,21.58
2016-06-25T01:05:38.769Z,21.61
2016-06-25T01:06:38.156Z,21.64
2016-06-25T01:07:37.541Z,21.66
2016-06-25T01:08:38.123Z,21.64
2016-06-25T01:09:37.546Z,21.58
2016-06-25T01:10:38.078Z,21.58
2016-06-25T01:11:38.671Z,21.7
2016-06-25T01:12:38.652Z,21.54
2016-06-25T01:13:38.042Z,21.52
2016-06-25T01:14:38.028Z,21.57
2016-06-25T01:15:37.420Z,21.52
2016-06-25T01:16:38.597Z,21.58
2016-06-25T01:17:37.378Z,21.57
2016-06-25T01:18:38.008Z,21.67
2016-06-25T01:19:38.555Z,21.67
2016-06-25T01:20:37.931Z,21.54
2016-06-25T01:21:37.317Z,21.48
2016-06-25T01:22:38.511Z,21.54
2016-06-25T01:23:38.477Z,21.5
2016-06-25T01:24:37.883Z,21.4
2016-06-25T01:25:38.455Z,21.39
2016-06-25T01:26:37.234Z,21.5
2016-06-25T01:27:37.221Z,21.36
2016-06-25T01:28:37.834Z,21.48
2016-06-25T01:29:37.187Z,21.42
2016-06-25T01:30:37.194Z,21.43
2016-06-25T01:31:37.763Z,21.4
2016-06-25T01:32:37.737Z,21.48
2016-06-25T01:33:37.138Z,21.35
2016-06-25T01:34:37.118Z,21.45
2016-06-25T01:35:38.304Z,21.39
2016-06-25T01:36:37.666Z,21.42
2016-06-25T01:37:37.696Z,21.42
2016-06-25T01:38:38.242Z,21.4
2016-06-25T01:39:37.630Z,21.4
2016-06-25T01:40:38.206Z,21.39
2016-06-25T01:41:38.196Z,21.4
2016-06-25T01:42:38.204Z,21.35
2016-06-25T01:43:37.585Z,21.4
2016-06-25T01:44:38.140Z,21.4
2016-06-25T01:45:37.544Z,21.36
2016-06-25T01:46:38.118Z,21.42
2016-06-25T01:47:37.483Z,21.32
2016-06-25T01:48:37.478Z,21.24
2016-06-25T01:49:36.862Z,21.32
2016-06-25T01:50:37.451Z,21.4
2016-06-25T01:51:36.835Z,21.36
2016-06-25T01:52:38.011Z,21.36
2016-06-25T01:53:37.999Z,21.39
2016-06-25T01:54:37.383Z,21.29
2016-06-25T01:55:37.377Z,21.35
2016-06-25T01:56:37.350Z,21.27
2016-06-25T01:57:37.943Z,21.3
2016-06-25T01:58:37.321Z,21.32
2016-06-25T01:59:37.307Z,21.25
2016-06-25T02:00:36.697Z,21.3
2016-06-25T02:01:37.283Z,21.29
2016-06-25T02:02:36.658Z,21.3
2016-06-25T02:03:37.234Z,21.2
2016-06-25T02:04:37.828Z,21.25
2016-06-25T02:05:36.610Z,21.21
2016-06-25T02:06:37.205Z,21.18
2016-06-25T02:07:37.185Z,21.27
2016-06-25T02:08:37.764Z,21.2
2016-06-25T02:09:37.748Z,21.18
2016-06-25T02:10:37.736Z,21.25
2016-06-25T02:11:37.113Z,21.2
2016-06-25T02:12:37.087Z,21.15
2016-06-25T02:13:36.485Z,21.2
2016-06-25T02:14:37.666Z,21.2
2016-06-25T02:15:37.050Z,21.21
2016-06-25T02:16:37.030Z,21.14
2016-06-25T02:17:37.615Z,21.21
2016-06-25T02:18:36.992Z,21.24
2016-06-25T02:19:37.587Z,21.25
2016-06-25T02:20:37.563Z,21.25
2016-06-25T02:21:36.959Z,21.25
2016-06-25T02:22:36.330Z,21.29
2016-06-25T02:23:37.511Z,21.32
2016-06-25T02:24:36.899Z,21.32
2016-06-25T02:25:36.890Z,21.29
2016-06-25T02:26:36.874Z,21.3
2016-06-25T02:27:36.846Z,21.22
2016-06-25T02:28:36.843Z,21.14
2016-06-25T02:29:36.827Z,21.24
2016-06-25T02:30:36.814Z,21.2
2016-06-25T02:31:36.797Z,21.17
2016-06-25T02:32:36.779Z,21.06
2016-06-25T02:33:36.151Z,21.02
2016-06-25T02:34:37.353Z,21.02
2016-06-25T02:35:37.334Z,21.03
2016-06-25T02:36:36.707Z,20.96
2016-06-25T02:37:36.693Z,20.93
2016-06-25T02:38:36.674Z,20.95
2016-06-25T02:39:36.070Z,20.93
2016-06-25T02:40:37.242Z,20.95
2016-06-25T02:41:36.040Z,20.87
2016-06-25T02:42:37.221Z,20.87
2016-06-25T02:43:37.191Z,20.87
2016-06-25T02:44:36.007Z,20.81
2016-06-25T02:45:36.566Z,20.85
2016-06-25T02:46:36.547Z,20.85
2016-06-25T02:47:37.127Z,20.82
2016-06-25T02:48:37.114Z,20.84
2016-06-25T02:49:36.496Z,20.84
2016-06-25T02:50:35.885Z,20.7
2016-06-25T02:51:36.465Z,20.7
2016-06-25T02:52:36.481Z,20.69
2016-06-25T02:53:36.437Z,20.69
2016-06-25T02:54:37.023Z,20.63
2016-06-25T02:55:36.997Z,20.66
2016-06-25T02:56:36.397Z,20.65
2016-06-25T02:57:36.971Z,20.65
2016-06-25T02:58:36.949Z,20.7
2016-06-25T02:59:35.739Z,20.72
2016-06-25T03:00:35.721Z,20.72
2016-06-25T03:01:36.305Z,20.7
2016-06-25T03:02:36.295Z,20.72
2016-06-25T03:03:35.665Z,20.72
2016-06-25T03:04:36.258Z,20.67
2016-06-25T03:05:35.633Z,20.72
2016-06-25T03:06:36.213Z,20.72
2016-06-25T03:07:36.800Z,20.7
2016-06-25T03:08:36.791Z,20.78
2016-06-25T03:09:36.170Z,20.74
2016-06-25T03:10:36.165Z,20.78
2016-06-25T03:11:36.163Z,20.72
2016-06-25T03:12:35.524Z,20.78
2016-06-25T03:13:35.509Z,20.69
2016-06-25T03:14:36.694Z,20.7
2016-06-25T03:15:36.109Z,20.8
2016-06-25T03:16:36.073Z,20.72
2016-06-25T03:17:36.750Z,20.7
2016-06-25T03:18:36.177Z,20.66
2016-06-25T03:19:36.113Z,20.74
2016-06-25T03:20:36.150Z,20.62
2016-06-25T03:21:36.190Z,20.67
2016-06-25T03:22:36.210Z,20.51
2016-06-25T03:23:35.349Z,20.52
2016-06-25T03:24:35.924Z,20.58
2016-06-25T03:25:35.928Z,20.48
2016-06-25T03:26:35.885Z,20.51
2016-06-25T03:27:35.886Z,20.56
2016-06-25T03:28:36.455Z,20.59
2016-06-25T03:29:36.443Z,20.56
2016-06-25T03:30:35.237Z,20.44
2016-06-25T03:31:35.250Z,20.41
2016-06-25T03:32:35.794Z,20.39
2016-06-25T03:33:35.777Z,20.39
2016-06-25T03:34:36.368Z,20.34
2016-06-25T03:35:35.744Z,20.32
2016-06-25T03:36:36.323Z,20.44
2016-06-25T03:37:35.715Z,20.36
2016-06-25T03:38:35.689Z,20.36
2016-06-25T03:39:35.663Z,20.37
2016-06-25T03:40:35.647Z,20.37
2016-06-25T03:41:35.053Z,20.37
2016-06-25T03:42:36.239Z,20.25
2016-06-25T03:43:35.609Z,20.28
2016-06-25T03:44:35.583Z,20.34
2016-06-25T03:45:34.989Z,20.31
2016-06-25T03:46:36.153Z,20.26
2016-06-25T03:47:35.551Z,20.31
2016-06-25T03:48:35.515Z,20.32
2016-06-25T03:49:34.905Z,20.31
2016-06-25T03:50:34.894Z,20.25
2016-06-25T03:51:36.063Z,20.31
2016-06-25T03:52:34.866Z,20.32
2016-06-25T03:53:35.429Z,20.4
2016-06-25T03:54:34.826Z,20.4
2016-06-25T03:55:35.428Z,20.4
2016-06-25T03:56:35.984Z,20.41
2016-06-25T03:57:34.778Z,20.37
2016-06-25T03:58:35.951Z,20.36
2016-06-25T03:59:35.362Z,20.39
2016-06-25T04:00:35.375Z,20.28
2016-06-25T04:01:35.900Z,20.26
2016-06-25T04:02:35.878Z,20.29
2016-06-25T04:03:35.864Z,20.21
2016-06-25T04:04:35.849Z,20.24
2016-06-25T04:05:34.654Z,20.24
2016-06-25T04:06:35.219Z,20.25
2016-06-25T04:07:34.632Z,20.21
2016-06-25T04:08:34.590Z,20.16
2016-06-25T04:09:34.563Z,20.19
2016-06-25T04:10:35.741Z,20.24
2016-06-25T04:11:34.550Z,20.22
2016-06-25T04:12:34.523Z,20.18
2016-06-25T04:13:35.717Z,20.06
2016-06-25T04:14:35.117Z,20.14
2016-06-25T04:15:34.459Z,20.1
2016-06-25T04:16:35.647Z,19.99
2016-06-25T04:17:34.440Z,20.02
2016-06-25T04:18:35.014Z,20.09
2016-06-25T04:19:34.996Z,20.04
2016-06-25T04:20:35.585Z,20.03
2016-06-25T04:21:35.570Z,20.1
2016-06-25T04:22:35.542Z,20.02
2016-06-25T04:23:34.341Z,20.04
2016-06-25T04:24:34.917Z,20.04
2016-06-25T04:25:34.910Z,20.06
2016-06-25T04:26:35.479Z,20.1
2016-06-25T04:27:34.866Z,20.07
2016-06-25T04:28:34.851Z,20.1
2016-06-25T04:29:35.438Z,20.02
2016-06-25T04:30:35.437Z,20.03
2016-06-25T04:31:34.827Z,20.11
2016-06-25T04:32:34.202Z,20.11
2016-06-25T04:33:34.765Z,20.04
2016-06-25T04:34:34.760Z,20.02
2016-06-25T04:35:35.324Z,20.07
2016-06-25T04:36:34.104Z,20.04
2016-06-25T04:37:34.089Z,19.99
2016-06-25T04:38:34.682Z,20.06
2016-06-25T04:39:34.055Z,20.02
2016-06-25T04:40:34.056Z,19.99
2016-06-25T04:41:34.029Z,19.99
2016-06-25T04:42:34.610Z,19.99
2016-06-25T04:43:35.186Z,19.99
2016-06-25T04:44:34.580Z,19.96
2016-06-25T04:45:34.552Z,19.95
2016-06-25T04:46:33.938Z,19.95
2016-06-25T04:47:34.543Z,20.09
2016-06-25T04:48:33.914Z,19.96
2016-06-25T04:49:33.894Z,19.96
2016-06-25T04:50:35.071Z,19.99
2016-06-25T04:51:35.049Z,19.99
2016-06-25T04:52:35.051Z,19.99
2016-06-25T04:53:33.822Z,19.95
2016-06-25T04:54:35.006Z,19.95
2016-06-25T04:55:34.377Z,19.99
2016-06-25T04:56:34.963Z,19.94
2016-06-25T04:57:34.961Z,19.94
2016-06-25T04:58:34.322Z,19.95
2016-06-25T04:59:34.321Z,19.95
2016-06-25T05:00:34.306Z,20.03
2016-06-25T05:01:34.868Z,20.02
2016-06-25T05:02:33.669Z,20.02
2016-06-25T05:03:33.663Z,20.1
2016-06-25T05:04:34.227Z,20.02
2016-06-25T05:05:33.615Z,20.06
2016-06-25T05:06:34.201Z,20.1
2016-06-25T05:07:34.778Z,20.1
2016-06-25T05:08:34.757Z,20.11
2016-06-25T05:09:34.159Z,20.03
2016-06-25T05:10:34.130Z,20.04
2016-06-25T05:11:34.107Z,20.03
2016-06-25T05:12:33.495Z,20.07
2016-06-25T05:13:34.087Z,20.04
2016-06-25T05:14:34.676Z,20.06
2016-06-25T05:15:34.054Z,20.06
2016-06-25T05:16:34.040Z,20.06
2016-06-25T05:17:34.050Z,20.04
2016-06-25T05:18:33.991Z,20
2016-06-25T05:19:33.379Z,20.09
2016-06-25T05:20:33.365Z,20.03
2016-06-25T05:21:33.950Z,20.07
2016-06-25T05:22:33.923Z,20.06
2016-06-25T05:23:33.918Z,20
2016-06-25T05:24:34.503Z,20.07
2016-06-25T05:25:33.275Z,20
2016-06-25T05:26:33.853Z,20.04
2016-06-25T05:27:33.839Z,20
2016-06-25T05:28:33.226Z,19.96
2016-06-25T05:29:33.838Z,20.04
2016-06-25T05:30:33.188Z,20
2016-06-25T05:31:33.788Z,20.06
2016-06-25T05:32:34.355Z,20.07
2016-06-25T05:33:33.747Z,20.02
2016-06-25T05:34:33.725Z,20
2016-06-25T05:35:33.742Z,20.03
2016-06-25T05:36:33.695Z,20.1
2016-06-25T05:37:33.081Z,20.07
2016-06-25T05:38:33.651Z,20.07
2016-06-25T05:39:33.631Z,20.07
2016-06-25T05:40:33.622Z,20
2016-06-25T05:41:33.609Z,20.04
2016-06-25T05:42:33.580Z,20
2016-06-25T05:43:33.566Z,19.96
2016-06-25T05:44:33.551Z,20.02
2016-06-25T05:45:34.147Z,19.96
2016-06-25T05:46:34.132Z,19.99
2016-06-25T05:47:34.092Z,19.96
2016-06-25T05:48:33.475Z,19.96
2016-06-25T05:49:32.877Z,20.02
2016-06-25T05:50:33.446Z,19.99
2016-06-25T05:51:33.428Z,19.92
2016-06-25T05:52:34.025Z,20
2016-06-25T05:53:33.409Z,19.99
2016-06-25T05:54:33.386Z,19.99
2016-06-25T05:55:33.969Z,20.06
2016-06-25T05:56:33.947Z,20.04
2016-06-25T05:57:33.425Z,20.06
2016-06-25T05:58:33.922Z,20.04
2016-06-25T05:59:33.899Z,20.02
2016-06-25T06:00:33.295Z,20.02
2016-06-25T06:01:33.267Z,20.03
2016-06-25T06:02:33.231Z,20
2016-06-25T06:03:33.244Z,19.99
2016-06-25T06:04:33.818Z,19.96
2016-06-25T06:05:33.206Z,19.94
2016-06-25T06:06:33.188Z,20
2016-06-25T06:07:33.748Z,19.96
2016-06-25T06:08:32.546Z,19.95
2016-06-25T06:09:32.528Z,19.99
2016-06-25T06:10:33.100Z,19.95
2016-06-25T06:11:33.089Z,19.89
2016-06-25T06:12:33.675Z,19.86
2016-06-25T06:13:33.063Z,19.82
2016-06-25T06:14:33.035Z,19.77
2016-06-25T06:15:33.024Z,19.86
2016-06-25T06:16:32.393Z,19.74
2016-06-25T06:17:33.586Z,19.73
2016-06-25T06:18:32.974Z,19.7
2016-06-25T06:19:32.367Z,19.71
2016-06-25T06:20:33.535Z,19.77
2016-06-25T06:21:32.925Z,19.67
2016-06-25T06:22:32.921Z,19.67
2016-06-25T06:23:32.888Z,19.73
2016-06-25T06:24:32.281Z,19.67
2016-06-25T06:25:32.257Z,19.69
2016-06-25T06:26:32.837Z,19.76
2016-06-25T06:27:32.217Z,19.73
2016-06-25T06:28:32.791Z,19.69
2016-06-25T06:29:33.385Z,19.69
2016-06-25T06:30:32.172Z,19.69
2016-06-25T06:31:33.344Z,19.76
2016-06-25T06:32:32.731Z,19.76
2016-06-25T06:33:32.710Z,19.64
2016-06-25T06:34:32.729Z,19.64
2016-06-25T06:35:32.093Z,19.67
2016-06-25T06:36:33.257Z,19.64
2016-06-25T06:37:32.656Z,19.62
2016-06-25T06:38:33.224Z,19.54
2016-06-25T06:39:32.006Z,19.66
2016-06-25T06:40:33.174Z,19.49
2016-06-25T06:41:32.572Z,19.51
2016-06-25T06:42:31.953Z,19.56
2016-06-25T06:43:32.536Z,19.54
2016-06-25T06:44:32.544Z,19.51
2016-06-25T06:45:32.558Z,19.55
2016-06-25T06:46:32.490Z,19.58
2016-06-25T06:47:31.874Z,19.55
2016-06-25T06:48:32.465Z,19.52
2016-06-25T06:49:33.033Z,19.51
2016-06-25T06:50:33.123Z,19.51
2016-06-25T06:51:32.421Z,19.55
2016-06-25T06:52:32.411Z,19.51
2016-06-25T06:53:32.362Z,19.51
2016-06-25T06:54:31.775Z,19.49
2016-06-25T06:55:33.192Z,19.49
2016-06-25T06:56:32.303Z,19.4
2016-06-25T06:57:32.296Z,19.45
2016-06-25T06:58:32.337Z,19.49
2016-06-25T06:59:32.267Z,19.51
2016-06-25T07:00:31.669Z,19.55
2016-06-25T07:01:31.683Z,19.45
2016-06-25T07:02:31.645Z,19.44
2016-06-25T07:03:31.611Z,19.45
2016-06-25T07:04:32.203Z,19.51
2016-06-25T07:05:32.167Z,19.54
2016-06-25T07:06:32.149Z,19.49
2016-06-25T07:07:32.164Z,19.54
2016-06-25T07:08:32.147Z,19.51
2016-06-25T07:09:31.490Z,19.51
2016-06-25T07:10:31.499Z,19.55
2016-06-25T07:11:31.492Z,19.49
2016-06-25T07:12:32.635Z,19.48
2016-06-25T07:13:32.639Z,19.55
2016-06-25T07:14:32.019Z,19.66
2016-06-25T07:15:32.002Z,19.64
2016-06-25T07:16:31.973Z,19.69
2016-06-25T07:17:31.406Z,19.63
2016-06-25T07:18:31.946Z,19.64
2016-06-25T07:19:31.922Z,19.62
2016-06-25T07:20:32.510Z,19.49
2016-06-25T07:21:31.882Z,19.47
2016-06-25T07:22:31.857Z,19.49
2016-06-25T07:23:32.503Z,19.49
2016-06-25T07:24:31.222Z,19.41
2016-06-25T07:25:31.211Z,19.51
2016-06-25T07:26:31.206Z,19.45
2016-06-25T07:27:31.182Z,19.44
2016-06-25T07:28:32.387Z,19.39
2016-06-25T07:29:32.344Z,19.31
2016-06-25T07:30:31.161Z,19.29
2016-06-25T07:31:31.111Z,19.29
2016-06-25T07:32:31.747Z,19.24
2016-06-25T07:33:32.405Z,19.21
2016-06-25T07:34:31.056Z,19.16
2016-06-25T07:35:32.378Z,19.11
2016-06-25T07:36:31.840Z,19.02
2016-06-25T07:37:31.695Z,18.99
2016-06-25T07:38:30.998Z,18.89
2016-06-25T07:39:31.663Z,18.92
2016-06-25T07:40:31.583Z,18.89
2016-06-25T07:41:31.578Z,18.84
2016-06-25T07:42:31.653Z,18.8
2016-06-25T07:43:31.520Z,18.83
2016-06-25T07:44:31.845Z,18.88
2016-06-25T07:45:32.474Z,18.95
2016-06-25T07:46:31.521Z,19.02
2016-06-25T07:47:31.436Z,19.12
2016-06-25T07:48:31.406Z,19.14
2016-06-25T07:49:31.998Z,19.21
2016-06-25T07:50:31.987Z,19.21
2016-06-25T07:51:31.955Z,19.21
2016-06-25T07:52:31.343Z,19.31
2016-06-25T07:53:30.730Z,19.29
2016-06-25T07:54:31.306Z,19.21
2016-06-25T07:55:31.902Z,19.21
2016-06-25T07:56:31.868Z,19.29
2016-06-25T07:57:30.661Z,19.33
2016-06-25T07:58:31.831Z,19.21
2016-06-25T07:59:31.839Z,19.26
2016-06-25T08:00:31.795Z,19.26
2016-06-25T08:01:31.183Z,19.15
2016-06-25T08:02:31.762Z,19.19
2016-06-25T08:03:31.139Z,19.24
2016-06-25T08:04:31.422Z,19.21
2016-06-25T08:05:31.202Z,19.24
2016-06-25T08:06:31.854Z,19.24
2016-06-25T08:07:31.262Z,19.24
2016-06-25T08:08:31.673Z,19.21
2016-06-25T08:09:30.448Z,19.18
2016-06-25T08:10:30.454Z,19.22
2016-06-25T08:11:31.619Z,19.26
2016-06-25T08:12:31.598Z,19.18
2016-06-25T08:13:30.995Z,19.19
2016-06-25T08:14:30.962Z,19.18
2016-06-25T08:15:30.945Z,19.18
2016-06-25T08:16:30.938Z,19.18
2016-06-25T08:17:30.304Z,19.08
2016-06-25T08:18:31.480Z,19.08
2016-06-25T08:19:31.468Z,19.11
2016-06-25T08:20:31.449Z,19.12
2016-06-25T08:21:30.841Z,19.15
2016-06-25T08:22:30.262Z,19.16
2016-06-25T08:23:30.242Z,19.02
2016-06-25T08:24:30.184Z,18.93
2016-06-25T08:25:31.425Z,18.99
2016-06-25T08:26:31.428Z,18.92
2016-06-25T08:27:30.751Z,19
2016-06-25T08:28:31.340Z,18.96
2016-06-25T08:29:30.701Z,18.96
2016-06-25T08:30:30.084Z,18.95
2016-06-25T08:31:31.259Z,18.95
2016-06-25T08:32:31.279Z,18.96
2016-06-25T08:33:30.028Z,18.98
2016-06-25T08:34:30.608Z,18.99
2016-06-25T08:35:31.230Z,19
2016-06-25T08:36:30.583Z,18.99
2016-06-25T08:37:30.554Z,18.99
2016-06-25T08:38:31.137Z,18.96
2016-06-25T08:39:30.518Z,18.96
2016-06-25T08:40:30.500Z,19.04
2016-06-25T08:41:30.483Z,19.02
2016-06-25T08:42:30.469Z,19.07
2016-06-25T08:43:31.048Z,19.14
2016-06-25T08:44:30.430Z,19.07
2016-06-25T08:45:30.418Z,19.18
2016-06-25T08:46:30.395Z,19.26
2016-06-25T08:47:30.385Z,19.19
2016-06-25T08:48:30.955Z,19.19
2016-06-25T08:49:30.349Z,19.16
2016-06-25T08:50:30.917Z,19.18
2016-06-25T08:51:29.718Z,19.15
2016-06-25T08:52:30.891Z,19.12
2016-06-25T08:53:29.694Z,19.19
2016-06-25T08:54:30.850Z,19.24
2016-06-25T08:55:30.251Z,19.18
2016-06-25T08:56:30.213Z,19.24
2016-06-25T08:57:30.208Z,19.24
2016-06-25T08:58:29.600Z,19.18
2016-06-25T08:59:30.170Z,19.22
2016-06-25T09:00:30.161Z,19.21
2016-06-25T09:01:30.145Z,19.16
2016-06-25T09:02:29.514Z,19.22
2016-06-25T09:03:30.700Z,19.24
2016-06-25T09:04:30.073Z,19.22
2016-06-25T09:05:30.051Z,19.29
2016-06-25T09:06:30.044Z,19.24
2016-06-25T09:07:30.028Z,19.3
2016-06-25T09:08:30.015Z,19.19
2016-06-25T09:09:29.396Z,19.29
2016-06-25T09:10:29.375Z,19.21
2016-06-25T09:11:29.347Z,19.22
2016-06-25T09:12:30.529Z,19.21
2016-06-25T09:13:29.322Z,19.22
2016-06-25T09:14:29.905Z,19.22
2016-06-25T09:15:29.878Z,19.16
2016-06-25T09:16:29.881Z,19.16
2016-06-25T09:17:29.850Z,19.22
2016-06-25T09:18:29.245Z,19.21
2016-06-25T09:19:29.815Z,19.18
2016-06-25T09:20:29.799Z,19.18
2016-06-25T09:21:30.399Z,19.22
2016-06-25T09:22:29.161Z,19.21
2016-06-25T09:23:29.741Z,19.24
2016-06-25T09:24:29.751Z,19.19
2016-06-25T09:25:30.331Z,19.22
2016-06-25T09:26:29.689Z,19.16
2016-06-25T09:27:30.280Z,19.18
2016-06-25T09:28:29.653Z,19.19
2016-06-25T09:29:29.034Z,19.21
2016-06-25T09:30:29.063Z,19.24
2016-06-25T09:31:29.024Z,19.24
2016-06-25T09:32:29.589Z,19.22
2016-06-25T09:33:29.573Z,19.29
2016-06-25T09:34:29.567Z,19.19
2016-06-25T09:35:30.137Z,19.21
2016-06-25T09:36:29.509Z,19.21
2016-06-25T09:37:30.148Z,19.19
2016-06-25T09:38:29.489Z,19.19
2016-06-25T09:39:29.464Z,19.16
2016-06-25T09:40:30.039Z,19.21
2016-06-25T09:41:29.428Z,19.24
2016-06-25T09:42:28.820Z,19.19
2016-06-25T09:43:29.383Z,19.12
2016-06-25T09:44:29.975Z,19.19
2016-06-25T09:45:29.366Z,19.15
2016-06-25T09:46:29.349Z,19.08
2016-06-25T09:47:29.334Z,19.08
2016-06-25T09:48:29.940Z,19.08
2016-06-25T09:49:28.710Z,19.11
2016-06-25T09:50:28.679Z,19.14
2016-06-25T09:51:28.641Z,19.12
2016-06-25T09:52:29.233Z,19.24
2016-06-25T09:53:29.227Z,19.12
2016-06-25T09:54:29.211Z,19.16
2016-06-25T09:55:28.584Z,19.18
2016-06-25T09:56:29.170Z,19.18
2016-06-25T09:57:29.789Z,19.22
2016-06-25T09:58:29.132Z,19.21
2016-06-25T09:59:28.530Z,19.3
2016-06-25T10:00:29.098Z,19.16
2016-06-25T10:01:29.101Z,19.24
2016-06-25T10:02:29.079Z,19.21
2016-06-25T10:03:29.048Z,19.18
2016-06-25T10:04:29.642Z,19.29
2016-06-25T10:05:29.606Z,19.3
2016-06-25T10:06:28.396Z,19.34
2016-06-25T10:07:28.983Z,19.34
2016-06-25T10:08:28.952Z,19.29
2016-06-25T10:09:29.534Z,19.29
2016-06-25T10:10:28.928Z,19.26
2016-06-25T10:11:28.895Z,19.29
2016-06-25T10:12:28.870Z,19.26
2016-06-25T10:13:29.475Z,19.19
2016-06-25T10:14:28.857Z,19.18
2016-06-25T10:15:29.441Z,19.19
2016-06-25T10:16:28.814Z,19.18
2016-06-25T10:17:29.390Z,19.19
2016-06-25T10:18:29.371Z,19.3
2016-06-25T10:19:28.165Z,19.21
2016-06-25T10:20:28.143Z,19.16
2016-06-25T10:21:29.375Z,19.18
2016-06-25T10:22:28.121Z,19.15
2016-06-25T10:23:28.707Z,19.12
2016-06-25T10:24:29.283Z,19.04
2016-06-25T10:25:28.663Z,19.09
2016-06-25T10:26:28.654Z,19.09
2016-06-25T10:27:28.625Z,19.04
2016-06-25T10:28:28.002Z,18.99
2016-06-25T10:29:28.835Z,18.95
2016-06-25T10:30:28.562Z,18.88
2016-06-25T10:31:29.150Z,18.9
2016-06-25T10:32:29.131Z,18.92
2016-06-25T10:33:28.520Z,18.84
2016-06-25T10:34:29.097Z,18.81
2016-06-25T10:35:28.481Z,18.84
2016-06-25T10:36:29.058Z,18.78
2016-06-25T10:37:28.465Z,18.74
2016-06-25T10:38:28.437Z,18.62
2016-06-25T10:39:27.808Z,18.7
2016-06-25T10:40:28.381Z,18.5
2016-06-25T10:41:28.374Z,18.62
2016-06-25T10:42:27.764Z,18.55
2016-06-25T10:43:28.346Z,18.44
2016-06-25T10:44:28.320Z,18.29
2016-06-25T10:45:27.750Z,18.35
2016-06-25T10:46:28.283Z,18.37
2016-06-25T10:47:28.270Z,18.37
2016-06-25T10:48:28.843Z,18.35
2016-06-25T10:49:28.231Z,18.28
2016-06-25T10:50:28.273Z,18.26
2016-06-25T10:51:28.795Z,18.29
2016-06-25T10:52:28.573Z,18.33
2016-06-25T10:53:28.174Z,18.28
2016-06-25T10:54:28.136Z,18.22
2016-06-25T10:55:28.130Z,18.18
2016-06-25T10:56:28.106Z,18.18
2016-06-25T10:57:27.504Z,18.08
2016-06-25T10:58:28.078Z,18.2
2016-06-25T10:59:28.066Z,18.08
2016-06-25T11:00:28.038Z,18.04
2016-06-25T11:01:28.030Z,18.04
2016-06-25T11:02:28.594Z,18.08
2016-06-25T11:03:27.403Z,18.13
2016-06-25T11:04:27.966Z,18.04
2016-06-25T11:05:27.415Z,18.07
2016-06-25T11:06:27.939Z,18.07
2016-06-25T11:07:27.906Z,18.1
2016-06-25T11:08:27.912Z,18.11
2016-06-25T11:09:28.483Z,18.11
2016-06-25T11:10:27.859Z,18.07
2016-06-25T11:11:28.462Z,18.19
2016-06-25T11:12:27.880Z,18.2
2016-06-25T11:13:27.221Z,18.2
2016-06-25T11:14:27.803Z,18.22
2016-06-25T11:15:28.381Z,18.25
2016-06-25T11:16:28.356Z,18.23
2016-06-25T11:17:27.745Z,18.25
2016-06-25T11:18:27.707Z,18.26
2016-06-25T11:19:28.311Z,18.29
2016-06-25T11:20:27.111Z,18.25
2016-06-25T11:21:27.686Z,18.28
2016-06-25T11:22:27.075Z,18.31
2016-06-25T11:23:27.627Z,18.31
2016-06-25T11:24:27.620Z,18.4
2016-06-25T11:25:27.614Z,18.23
2016-06-25T11:26:27.584Z,18.29
2016-06-25T11:27:26.969Z,18.34
2016-06-25T11:28:26.972Z,18.34
2016-06-25T11:29:27.584Z,18.4
2016-06-25T11:30:27.515Z,18.37
2016-06-25T11:31:27.504Z,18.31
2016-06-25T11:32:28.081Z,18.35
2016-06-25T11:33:27.471Z,18.37
2016-06-25T11:34:27.445Z,18.37
2016-06-25T11:35:27.428Z,18.34
2016-06-25T11:36:27.996Z,18.38
2016-06-25T11:37:27.998Z,18.44
2016-06-25T11:38:27.377Z,18.45
2016-06-25T11:39:27.349Z,18.38
2016-06-25T11:40:27.347Z,18.4
2016-06-25T11:41:27.334Z,18.37
2016-06-25T11:42:27.304Z,18.29
2016-06-25T11:43:26.681Z,18.45
2016-06-25T11:44:26.666Z,18.41
2016-06-25T11:45:27.246Z,18.5
2016-06-25T11:46:27.244Z,18.44
2016-06-25T11:47:27.231Z,18.5
2016-06-25T11:48:27.194Z,18.47
2016-06-25T11:49:26.584Z,18.53
2016-06-25T11:50:27.161Z,18.49
2016-06-25T11:51:26.544Z,18.5
2016-06-25T11:52:27.734Z,18.47
2016-06-25T11:53:27.717Z,18.49
2016-06-25T11:54:27.693Z,18.52
2016-06-25T11:55:27.072Z,18.55
2016-06-25T11:56:27.064Z,18.45
2016-06-25T11:57:26.458Z,18.45
2016-06-25T11:58:27.583Z,18.49
2016-06-25T11:59:27.025Z,18.38
2016-06-25T12:00:26.984Z,18.38
2016-06-25T12:01:26.961Z,18.43
2016-06-25T12:02:27.545Z,18.45
2016-06-25T12:03:26.357Z,18.44
2016-06-25T12:04:26.919Z,18.43
2016-06-25T12:05:27.546Z,18.49
2016-06-25T12:06:27.486Z,18.45
2016-06-25T12:07:26.861Z,18.52
2016-06-25T12:08:27.464Z,18.44
2016-06-25T12:09:26.830Z,18.49
2016-06-25T12:10:26.811Z,18.53
2016-06-25T12:11:27.394Z,18.45
2016-06-25T12:12:26.777Z,18.47
2016-06-25T12:13:27.346Z,18.45
2016-06-25T12:14:26.732Z,18.4
2016-06-25T12:15:27.345Z,18.45
2016-06-25T12:16:27.300Z,18.49
2016-06-25T12:17:27.267Z,18.4
2016-06-25T12:18:26.066Z,18.47
2016-06-25T12:19:26.652Z,18.43
2016-06-25T12:20:26.625Z,18.35
2016-06-25T12:21:26.615Z,18.33
2016-06-25T12:22:26.602Z,18.31
2016-06-25T12:23:26.630Z,18.37
2016-06-25T12:24:26.566Z,18.31
2016-06-25T12:25:27.142Z,18.26
2016-06-25T12:26:26.525Z,18.29
2016-06-25T12:27:25.903Z,18.29
2016-06-25T12:28:25.888Z,18.26
2016-06-25T12:29:25.901Z,18.2
2016-06-25T12:30:27.054Z,18.25
2016-06-25T12:31:25.817Z,18.25
2016-06-25T12:32:27.027Z,18.15
2016-06-25T12:33:26.387Z,18.18
2016-06-25T12:34:26.974Z,18.26
2016-06-25T12:35:26.962Z,18.05
2016-06-25T12:36:26.940Z,18.18
2016-06-25T12:37:26.325Z,18.15
2016-06-25T12:38:26.894Z,18.2
2016-06-25T12:39:26.286Z,18.15
2016-06-25T12:40:26.271Z,18.15
2016-06-25T12:41:26.249Z,18.18
2016-06-25T12:42:25.688Z,18.13
2016-06-25T12:43:26.849Z,18.18
2016-06-25T12:44:26.217Z,18.16
2016-06-25T12:45:25.587Z,18.19
2016-06-25T12:46:26.770Z,18.19
2016-06-25T12:47:26.737Z,18.25
2016-06-25T12:48:26.735Z,18.23
2016-06-25T12:49:26.123Z,18.22
2016-06-25T12:50:26.131Z,18.26
2016-06-25T12:51:26.065Z,18.26
2016-06-25T12:52:26.058Z,18.25
2016-06-25T12:53:26.670Z,18.34
2016-06-25T12:54:26.012Z,18.31
2016-06-25T12:55:25.419Z,18.35
2016-06-25T12:56:26.603Z,18.28